createdAt,value
2022-11-13T00:01:09.420Z,97.20
2022-11-13T00:03:36.220Z,97.30
2022-11-13T00:06:03.422Z,97.20
2022-11-13T00:08:30.601Z,97.10
2022-11-13T00:11:09.139Z,97.00
2022-11-13T00:13:36.155Z,96.80
2022-11-13T00:16:05.572Z,97.00
2022-11-13T00:18:35.436Z,97.20
2022-11-13T00:21:11.165Z,97.20
2022-11-13T00:23:37.999Z,97.20
2022-11-13T00:26:15.173Z,97.70
2022-11-13T00:28:42.221Z,97.70
2022-11-13T00:31:10.407Z,97.40
2022-11-13T00:36:27.224Z,97.40
2022-11-13T00:38:55.111Z,97.40
2022-11-13T00:41:23.335Z,97.60
2022-11-13T00:43:50.212Z,97.40
2022-11-13T00:46:16.987Z,97.60
2022-11-13T00:48:43.738Z,97.80
2022-11-13T00:51:10.939Z,97.50
2022-11-13T00:53:37.741Z,97.60
2022-11-13T00:56:05.172Z,97.40
2022-11-13T00:58:32.112Z,96.70
2022-11-13T01:01:11.730Z,96.30
2022-11-13T01:03:38.880Z,96.20
2022-11-13T01:06:24.159Z,96.80
2022-11-13T01:08:50.924Z,97.00
2022-11-13T01:11:20.680Z,97.00
2022-11-13T01:13:49.709Z,97.40
2022-11-13T01:16:19.058Z,97.90
2022-11-13T01:18:46.830Z,98.10
2022-11-13T01:21:25.989Z,98.30
2022-11-13T01:23:54.597Z,98.50
2022-11-13T01:26:27.059Z,98.50
2022-11-13T01:28:55.131Z,98.40
2022-11-13T01:31:25.075Z,98.00
2022-11-13T01:33:52.189Z,97.70
2022-11-13T01:36:27.823Z,97.50
2022-11-13T01:38:55.374Z,98.00
2022-11-13T01:41:28.597Z,98.00
2022-11-13T01:43:56.274Z,98.00
2022-11-13T01:46:34.964Z,98.00
2022-11-13T01:49:10.831Z,98.10
2022-11-13T01:51:47.705Z,98.20
2022-11-13T01:54:20.593Z,97.90
2022-11-13T01:56:47.995Z,98.00
2022-11-13T01:59:20.919Z,98.10
2022-11-13T02:01:47.830Z,98.20
2022-11-13T02:04:14.704Z,98.30
2022-11-13T02:06:46.876Z,98.20
2022-11-13T02:09:15.966Z,98.20
2022-11-13T02:11:42.697Z,98.20
2022-11-13T02:14:11.607Z,98.30
2022-11-13T02:16:41.204Z,98.40
2022-11-13T02:19:19.910Z,98.50
2022-11-13T02:21:51.491Z,98.50
2022-11-13T02:24:37.700Z,98.40
2022-11-13T02:27:08.515Z,98.50
2022-11-13T02:29:35.227Z,98.70
2022-11-13T02:32:02.114Z,98.50
2022-11-13T02:34:29.042Z,98.00
2022-11-13T02:36:55.816Z,97.90
2022-11-13T02:39:22.612Z,98.10
2022-11-13T02:41:49.384Z,98.20
2022-11-13T02:44:16.102Z,98.30
2022-11-13T02:46:42.893Z,98.50
2022-11-13T02:49:09.592Z,98.80
2022-11-13T02:51:36.428Z,98.40
2022-11-13T02:54:03.350Z,97.80
2022-11-13T02:56:30.183Z,97.60
2022-11-13T02:58:57.050Z,97.90
2022-11-13T03:01:23.895Z,97.90
2022-11-13T03:03:58.561Z,97.80
2022-11-13T03:06:25.488Z,97.70
2022-11-13T03:08:52.264Z,97.80
2022-11-13T03:11:19.090Z,97.40
2022-11-13T03:13:45.803Z,96.90
2022-11-13T03:16:16.944Z,96.10
2022-11-13T03:18:43.785Z,95.50
2022-11-13T03:21:13.204Z,95.70
2022-11-13T03:23:42.118Z,95.40
2022-11-13T03:26:11.316Z,95.00
2022-11-13T03:28:38.122Z,94.90
2022-11-13T03:31:05.780Z,95.40
2022-11-13T03:33:32.950Z,95.30
2022-11-13T03:35:59.826Z,95.40
2022-11-13T03:38:27.053Z,95.00
2022-11-13T03:40:54.179Z,95.00
2022-11-13T03:43:21.017Z,94.30
2022-11-13T03:45:47.900Z,94.30
2022-11-13T03:48:16.032Z,94.40
2022-11-13T03:50:45.662Z,94.70
2022-11-13T03:53:13.266Z,94.90
2022-11-13T03:55:40.454Z,95.00
2022-11-13T03:58:07.224Z,95.30
2022-11-13T04:00:34.397Z,95.20
2022-11-13T04:03:01.184Z,95.50
2022-11-13T04:05:28.168Z,95.80
2022-11-13T04:07:55.089Z,95.90
2022-11-13T04:10:22.431Z,95.60
2022-11-13T04:12:49.219Z,95.20
2022-11-13T04:15:16.450Z,94.90
2022-11-13T04:17:43.189Z,94.50
2022-11-13T04:20:10.631Z,94.70
2022-11-13T04:22:37.396Z,94.80
2022-11-13T04:25:05.131Z,94.80
2022-11-13T04:27:31.968Z,94.90
2022-11-13T04:29:58.747Z,95.00
2022-11-13T04:32:25.492Z,94.90
2022-11-13T04:34:52.306Z,95.00
2022-11-13T04:37:19.099Z,94.60
2022-11-13T04:39:45.935Z,95.00
2022-11-13T04:42:31.319Z,95.00
2022-11-13T04:44:58.098Z,94.80
2022-11-13T04:47:24.888Z,94.90
2022-11-13T04:49:51.598Z,94.80
2022-11-13T04:52:18.346Z,95.00
2022-11-13T04:54:45.127Z,95.40
2022-11-13T04:57:11.881Z,95.50
2022-11-13T04:59:38.660Z,95.90
2022-11-13T05:02:05.453Z,96.00
2022-11-13T05:04:32.254Z,96.40
2022-11-13T05:06:59.379Z,96.50
2022-11-13T05:09:26.188Z,96.90
2022-11-13T05:11:52.909Z,96.50
2022-11-13T05:14:19.694Z,96.30
2022-11-13T05:16:46.387Z,95.80
2022-11-13T05:19:13.139Z,95.50
2022-11-13T05:21:40.124Z,95.70
2022-11-13T05:24:07.306Z,95.80
2022-11-13T05:26:34.015Z,95.90
2022-11-13T05:29:01.116Z,96.30
2022-11-13T05:31:27.917Z,96.40
2022-11-13T05:33:55.463Z,96.10
2022-11-13T05:36:22.948Z,96.40
2022-11-13T05:38:50.275Z,96.30
2022-11-13T05:41:19.270Z,95.70
2022-11-13T05:43:47.085Z,95.20
2022-11-13T05:46:24.749Z,94.80
2022-11-13T05:48:59.756Z,94.80
2022-11-13T05:51:32.275Z,95.00
2022-11-13T05:53:59.907Z,95.40
2022-11-13T05:56:32.273Z,95.40
2022-11-13T05:59:00.579Z,95.90
2022-11-13T06:01:38.572Z,96.20
2022-11-13T06:04:06.826Z,96.30
2022-11-13T06:06:34.565Z,96.40
2022-11-13T06:09:04.160Z,96.60
2022-11-13T06:11:31.537Z,96.50
2022-11-13T06:13:59.536Z,95.90
2022-11-13T06:16:29.050Z,96.50
2022-11-13T06:18:58.386Z,96.60
2022-11-13T06:21:28.727Z,96.40
2022-11-13T06:23:56.731Z,96.40
2022-11-13T06:26:25.901Z,96.00
2022-11-13T06:28:52.981Z,96.10
2022-11-13T06:31:23.208Z,96.10
2022-11-13T06:33:50.242Z,95.90
2022-11-13T06:36:22.654Z,95.60
2022-11-13T06:38:49.920Z,95.10
2022-11-13T06:41:19.189Z,95.40
2022-11-13T06:43:47.456Z,95.70
2022-11-13T06:46:16.856Z,95.60
2022-11-13T06:48:43.985Z,95.40
2022-11-13T06:51:17.392Z,95.10
2022-11-13T06:53:44.639Z,94.80
2022-11-13T06:56:11.999Z,94.60
2022-11-13T06:58:39.583Z,94.60
2022-11-13T07:01:08.816Z,94.60
2022-11-13T07:03:35.810Z,93.80
2022-11-13T07:06:09.197Z,94.30
2022-11-13T07:08:36.517Z,94.20
2022-11-13T07:11:03.330Z,94.20
2022-11-13T07:13:30.147Z,94.30
2022-11-13T07:16:09.341Z,94.70
2022-11-13T07:18:42.648Z,95.00
2022-11-13T07:21:11.534Z,94.80
2022-11-13T07:23:43.063Z,94.80
2022-11-13T07:26:10.959Z,95.30
2022-11-13T07:28:38.014Z,95.00
2022-11-13T07:31:05.612Z,94.70
2022-11-13T07:33:32.717Z,94.60
2022-11-13T07:35:59.857Z,94.60
2022-11-13T07:38:27.038Z,94.80
2022-11-13T07:40:54.195Z,95.00
2022-11-13T07:43:21.028Z,95.30
2022-11-13T07:45:47.813Z,95.30
2022-11-13T07:48:14.667Z,95.50
2022-11-13T07:50:41.400Z,95.60
2022-11-13T07:53:10.287Z,95.30
2022-11-13T07:55:37.409Z,95.00
2022-11-13T07:58:05.659Z,94.70
2022-11-13T08:00:34.495Z,94.70
2022-11-13T08:03:17.203Z,94.30
2022-11-13T08:05:43.970Z,93.50
2022-11-13T08:08:14.667Z,93.00
2022-11-13T08:10:41.830Z,92.50
2022-11-13T08:13:10.748Z,92.30
2022-11-13T08:15:37.896Z,92.20
2022-11-13T08:18:05.321Z,92.10
2022-11-13T08:20:32.172Z,91.80
2022-11-13T08:23:03.717Z,91.70
2022-11-13T08:25:31.658Z,91.10
2022-11-13T08:27:59.231Z,91.10
2022-11-13T08:30:27.598Z,90.10
2022-11-13T08:32:54.742Z,90.00
2022-11-13T08:35:26.552Z,90.00
2022-11-13T08:38:06.370Z,89.30
2022-11-13T08:40:33.290Z,88.40
2022-11-13T08:43:01.263Z,86.50
2022-11-13T08:45:29.967Z,87.20
2022-11-13T08:48:04.755Z,87.90
2022-11-13T08:50:33.156Z,89.20
2022-11-13T08:53:01.125Z,87.60
2022-11-13T08:55:28.172Z,86.80
2022-11-13T08:57:59.074Z,85.30
2022-11-13T09:00:26.498Z,84.20
2022-11-13T09:02:57.637Z,83.20
2022-11-13T09:05:25.559Z,83.00
2022-11-13T09:07:56.792Z,79.90
2022-11-13T09:10:23.996Z,78.90
2022-11-13T09:12:56.756Z,79.10
2022-11-13T09:15:24.708Z,78.90
2022-11-13T09:17:51.876Z,79.70
2022-11-13T09:20:22.783Z,80.50
2022-11-13T09:23:06.325Z,81.10
2022-11-13T09:25:37.672Z,81.10
2022-11-13T09:28:05.652Z,80.70
2022-11-13T09:30:32.553Z,80.10
2022-11-13T09:33:00.990Z,79.60
2022-11-13T09:35:35.595Z,77.50
2022-11-13T09:38:11.846Z,72.90
2022-11-13T09:40:48.982Z,70.70
2022-11-13T09:43:28.540Z,70.70
2022-11-13T09:46:06.542Z,70.20
2022-11-13T09:48:38.199Z,70.10
2022-11-13T09:51:19.015Z,69.40
2022-11-13T09:53:45.874Z,67.90
2022-11-13T09:56:28.018Z,66.80
2022-11-13T09:59:05.282Z,66.40
2022-11-13T10:01:55.290Z,66.20
2022-11-13T10:04:34.768Z,67.10
2022-11-13T10:07:44.435Z,66.30
2022-11-13T10:10:41.841Z,63.30
2022-11-13T10:13:14.425Z,63.00
2022-11-13T10:15:44.261Z,60.20
2022-11-13T10:18:26.372Z,59.60
2022-11-13T10:21:25.190Z,57.70
2022-11-13T10:23:56.742Z,60.30
2022-11-13T10:26:27.883Z,60.90
2022-11-13T10:29:01.493Z,60.30
2022-11-13T10:31:28.323Z,60.50
2022-11-13T10:33:57.279Z,61.20
2022-11-13T10:36:50.066Z,61.00
2022-11-13T10:39:16.779Z,60.40
2022-11-13T10:41:55.020Z,60.90
2022-11-13T10:44:25.911Z,61.40
2022-11-13T10:47:15.451Z,61.70
2022-11-13T10:49:42.302Z,62.90
2022-11-13T10:52:43.792Z,61.80
2022-11-13T10:55:39.114Z,62.80
2022-11-13T10:58:17.618Z,64.00
2022-11-13T11:00:49.037Z,64.10
2022-11-13T11:03:25.884Z,63.60
2022-11-13T11:06:01.527Z,63.70
2022-11-13T11:08:33.870Z,63.90
2022-11-13T11:11:32.056Z,64.20
2022-11-13T11:14:23.590Z,63.80
2022-11-13T11:16:52.819Z,63.30
2022-11-13T11:19:25.172Z,64.00
2022-11-13T11:22:02.166Z,63.70
2022-11-13T11:24:35.222Z,63.70
2022-11-13T11:27:13.885Z,63.60
2022-11-13T11:29:54.611Z,64.00
2022-11-13T11:32:54.694Z,64.40
2022-11-13T11:35:24.508Z,64.10
2022-11-13T11:38:05.852Z,63.60
2022-11-13T11:40:44.325Z,62.90
2022-11-13T11:43:43.569Z,62.20
2022-11-13T11:46:14.920Z,62.80
2022-11-13T11:48:41.952Z,63.40
2022-11-13T11:51:31.074Z,63.60
2022-11-13T11:54:24.049Z,63.80
2022-11-13T11:56:59.213Z,64.30
2022-11-13T11:59:49.952Z,63.40
2022-11-13T12:02:28.961Z,62.90
2022-11-13T12:05:19.892Z,63.60
2022-11-13T12:08:05.291Z,63.50
2022-11-13T12:11:13.579Z,64.00
2022-11-13T12:14:06.581Z,64.00
2022-11-13T12:16:41.350Z,62.90
2022-11-13T12:19:33.381Z,63.10
2022-11-13T12:22:07.887Z,62.90
2022-11-13T12:24:59.702Z,62.20
2022-11-13T12:27:26.482Z,61.80
2022-11-13T12:30:11.894Z,62.30
2022-11-13T12:32:41.735Z,62.30
2022-11-13T12:35:23.666Z,61.60
2022-11-13T12:38:11.641Z,61.80
2022-11-13T12:40:59.011Z,62.00
2022-11-13T12:43:31.503Z,61.00
2022-11-13T12:46:09.395Z,61.30
2022-11-13T12:48:46.926Z,60.80
2022-11-13T12:51:15.946Z,60.10
2022-11-13T12:53:52.981Z,59.70
2022-11-13T12:56:28.464Z,60.10
2022-11-13T12:59:34.304Z,59.60
2022-11-13T13:02:06.973Z,59.90
2022-11-13T13:04:52.652Z,59.40
2022-11-13T13:07:28.335Z,60.10
2022-11-13T13:10:18.752Z,60.70
2022-11-13T13:12:57.435Z,60.70
2022-11-13T13:15:29.268Z,61.60
2022-11-13T13:18:06.181Z,61.90
2022-11-13T13:20:37.257Z,62.30
2022-11-13T13:23:08.475Z,62.80
2022-11-13T13:25:36.451Z,63.20
2022-11-13T13:28:21.229Z,63.70
2022-11-13T13:31:12.148Z,64.00
2022-11-13T13:34:15.399Z,64.40
2022-11-13T13:37:05.777Z,63.90
2022-11-13T13:39:55.767Z,63.90
2022-11-13T13:42:53.577Z,63.60
2022-11-13T13:45:48.046Z,63.90
2022-11-13T13:48:27.813Z,63.70
2022-11-13T13:50:56.535Z,63.40
2022-11-13T13:53:27.598Z,63.60
2022-11-13T13:55:58.948Z,63.40
2022-11-13T13:58:33.884Z,62.90
2022-11-13T14:01:18.289Z,62.60
2022-11-13T14:03:46.397Z,62.90
2022-11-13T14:06:23.399Z,62.30
2022-11-13T14:08:50.200Z,62.10
2022-11-13T14:11:27.180Z,62.40
2022-11-13T14:13:54.053Z,62.60
2022-11-13T14:16:20.820Z,62.90
2022-11-13T14:18:48.005Z,63.00
2022-11-13T14:21:20.732Z,63.90
2022-11-13T14:23:50.445Z,63.90
2022-11-13T14:26:18.405Z,63.90
2022-11-13T14:28:52.272Z,63.90
2022-11-13T14:31:25.331Z,63.40
2022-11-13T14:33:52.597Z,63.10
2022-11-13T14:36:30.193Z,63.30
2022-11-13T14:38:57.811Z,63.70
2022-11-13T14:41:27.330Z,63.50
2022-11-13T14:43:54.507Z,63.50
2022-11-13T14:46:39.617Z,63.80
2022-11-13T14:49:27.724Z,64.60
2022-11-13T14:51:55.982Z,64.80
2022-11-13T14:55:00.030Z,65.00
2022-11-13T14:57:21.986Z,65.90
2022-11-13T14:59:48.670Z,64.80
2022-11-13T15:02:15.407Z,65.80
2022-11-13T15:04:42.115Z,65.40
2022-11-13T15:07:29.099Z,65.80
2022-11-13T15:09:57.164Z,66.00
2022-11-13T15:12:24.139Z,67.20
2022-11-13T15:14:51.433Z,67.60
2022-11-13T15:17:20.896Z,67.60
2022-11-13T15:19:51.262Z,67.70
2022-11-13T15:22:27.105Z,68.30
2022-11-13T15:24:54.653Z,68.40
2022-11-13T15:27:21.397Z,68.60
2022-11-13T15:29:48.097Z,69.80
2022-11-13T15:32:16.032Z,70.60
2022-11-13T15:34:43.168Z,70.60
2022-11-13T15:37:14.964Z,71.50
2022-11-13T15:39:41.742Z,72.00
2022-11-13T15:42:18.482Z,72.60
2022-11-13T15:44:46.059Z,72.60
2022-11-13T15:47:36.630Z,72.70
2022-11-13T15:50:20.448Z,72.90
2022-11-13T15:52:50.718Z,73.10
2022-11-13T15:55:32.244Z,73.40
2022-11-13T15:58:03.427Z,73.90
2022-11-13T16:00:30.211Z,74.30
2022-11-13T16:02:57.658Z,74.50
2022-11-13T16:05:26.215Z,75.20
2022-11-13T16:07:56.696Z,75.60
2022-11-13T16:10:25.201Z,75.90
2022-11-13T16:12:52.742Z,76.40
2022-11-13T16:15:19.927Z,76.30
2022-11-13T16:17:50.301Z,76.80
2022-11-13T16:20:18.749Z,76.80
2022-11-13T16:22:45.932Z,76.70
2022-11-13T16:25:22.633Z,77.20
2022-11-13T16:27:49.430Z,77.60
2022-11-13T16:30:20.203Z,78.40
2022-11-13T16:32:47.651Z,78.50
2022-11-13T16:35:16.620Z,79.00
2022-11-13T16:37:43.680Z,78.70
2022-11-13T16:40:22.677Z,78.80
2022-11-13T16:42:49.608Z,79.30
2022-11-13T16:45:16.549Z,79.80
2022-11-13T16:47:43.498Z,80.60
2022-11-13T16:50:19.566Z,80.90
2022-11-13T16:52:46.335Z,81.30
2022-11-13T16:55:13.375Z,81.50
2022-11-13T16:57:40.924Z,81.80
2022-11-13T17:00:12.094Z,82.20
2022-11-13T17:02:39.139Z,82.50
2022-11-13T17:05:06.127Z,81.90
2022-11-13T17:07:33.015Z,82.60
2022-11-13T17:10:29.018Z,83.10
2022-11-13T17:12:53.799Z,83.40
2022-11-13T17:15:21.423Z,83.60
2022-11-13T17:17:48.561Z,84.20
2022-11-13T17:20:18.287Z,84.00
2022-11-13T17:22:48.525Z,84.60
2022-11-13T17:25:17.285Z,84.40
2022-11-13T17:27:44.150Z,84.80
2022-11-13T17:30:14.525Z,84.80
2022-11-13T17:32:41.404Z,84.80
2022-11-13T17:35:08.996Z,84.80
2022-11-13T17:37:35.801Z,84.60
2022-11-13T17:40:02.552Z,85.30
2022-11-13T17:42:29.264Z,85.60
2022-11-13T17:44:56.243Z,86.10
2022-11-13T17:47:23.111Z,85.40
2022-11-13T17:49:49.861Z,87.00
2022-11-13T17:52:16.628Z,87.70
2022-11-13T17:54:43.332Z,87.80
2022-11-13T17:57:10.320Z,88.40
2022-11-13T17:59:37.198Z,89.20
2022-11-13T18:02:04.302Z,88.80
2022-11-13T18:04:31.034Z,88.10
2022-11-13T18:06:58.527Z,88.50
2022-11-13T18:09:25.356Z,87.50
2022-11-13T18:11:52.104Z,88.00
2022-11-13T18:14:19.098Z,88.20
2022-11-13T18:16:46.199Z,88.90
2022-11-13T18:19:13.249Z,89.00
2022-11-13T18:21:40.891Z,88.90
2022-11-13T18:24:15.128Z,89.20
2022-11-13T18:26:42.607Z,89.60
2022-11-13T18:29:09.621Z,89.70
2022-11-13T18:31:36.556Z,88.60
2022-11-13T18:34:05.525Z,89.60
2022-11-13T18:36:34.660Z,89.80
2022-11-13T18:39:03.297Z,89.30
2022-11-13T18:41:30.888Z,89.00
2022-11-13T18:43:57.923Z,89.70
2022-11-13T18:46:25.311Z,89.20
2022-11-13T18:48:52.280Z,89.00
2022-11-13T18:51:20.451Z,88.80
2022-11-13T18:53:49.358Z,88.20
2022-11-13T18:56:18.967Z,88.00
2022-11-13T18:58:47.614Z,87.30
2022-11-13T19:01:22.627Z,87.80
2022-11-13T19:04:16.090Z,87.90
2022-11-13T19:06:39.222Z,87.70
2022-11-13T19:09:09.884Z,87.50
2022-11-13T19:11:36.682Z,86.90
2022-11-13T19:14:04.091Z,87.00
2022-11-13T19:16:34.793Z,86.10
2022-11-13T19:19:04.687Z,85.40
2022-11-13T19:21:32.985Z,85.10
2022-11-13T19:24:01.378Z,84.70
2022-11-13T19:26:28.720Z,84.50
2022-11-13T19:28:56.226Z,83.60
2022-11-13T19:31:26.395Z,84.20
2022-11-13T19:33:57.765Z,84.50
2022-11-13T19:36:25.759Z,84.70
2022-11-13T19:38:52.979Z,84.80
2022-11-13T19:41:19.949Z,84.60
2022-11-13T19:43:48.020Z,84.70
2022-11-13T19:46:16.266Z,84.80
2022-11-13T19:48:44.717Z,83.80
2022-11-13T19:51:13.856Z,84.10
2022-11-13T19:53:46.215Z,84.00
2022-11-13T19:56:23.396Z,84.20
2022-11-13T19:58:51.381Z,84.20
2022-11-13T20:01:21.515Z,84.80
2022-11-13T20:03:48.608Z,85.20
2022-11-13T20:06:17.239Z,86.10
2022-11-13T20:08:44.161Z,86.60
2022-11-13T20:11:14.319Z,87.30
2022-11-13T20:13:42.490Z,87.90
2022-11-13T20:16:11.906Z,87.90
2022-11-13T20:18:39.221Z,88.10
2022-11-13T20:21:06.369Z,88.30
2022-11-13T20:23:35.269Z,87.90
2022-11-13T20:26:05.172Z,88.30
2022-11-13T20:28:33.270Z,90.10
2022-11-13T20:31:11.299Z,90.10
2022-11-13T20:33:38.022Z,90.40
2022-11-13T20:36:05.205Z,90.50
2022-11-13T20:38:32.242Z,90.80
2022-11-13T20:41:02.538Z,90.90
2022-11-13T20:43:29.407Z,90.80
2022-11-13T20:46:07.212Z,90.90
2022-11-13T20:48:34.463Z,90.90
2022-11-13T20:51:09.336Z,91.00
2022-11-13T20:53:36.146Z,90.90
2022-11-13T20:56:03.449Z,91.10
2022-11-13T20:58:31.425Z,91.00
2022-11-13T21:01:10.310Z,90.90
2022-11-13T21:03:42.479Z,90.60
2022-11-13T21:06:11.239Z,90.50
2022-11-13T21:08:38.576Z,90.20
2022-11-13T21:11:07.504Z,90.40
2022-11-13T21:13:35.113Z,90.20
2022-11-13T21:16:07.519Z,90.40
2022-11-13T21:18:34.619Z,90.20
2022-11-13T21:21:18.815Z,89.30
2022-11-13T21:23:47.212Z,88.80
2022-11-13T21:26:14.496Z,88.70
2022-11-13T21:28:41.637Z,88.60
2022-11-13T21:31:15.181Z,87.80
2022-11-13T21:33:43.548Z,87.50
2022-11-13T21:36:20.365Z,86.60
2022-11-13T21:38:50.727Z,86.70
2022-11-13T21:41:24.890Z,85.40
2022-11-13T21:44:04.529Z,85.40
2022-11-13T21:46:33.724Z,85.10
2022-11-13T21:49:02.995Z,84.80
2022-11-13T21:51:31.391Z,84.60
2022-11-13T21:53:58.811Z,85.30
2022-11-13T21:56:26.962Z,85.10
2022-11-13T21:58:55.742Z,85.00
2022-11-13T22:01:24.079Z,84.80
2022-11-13T22:03:51.200Z,85.10
2022-11-13T22:06:19.779Z,85.10
2022-11-13T22:08:54.689Z,85.70
2022-11-13T22:11:22.174Z,86.30
2022-11-13T22:13:48.915Z,86.90
2022-11-13T22:16:16.065Z,86.70
2022-11-13T22:18:43.084Z,87.80
2022-11-13T22:21:11.767Z,88.40
2022-11-13T22:23:38.916Z,88.50
2022-11-13T22:26:10.913Z,88.50
2022-11-13T22:28:39.483Z,88.20
2022-11-13T22:31:06.991Z,87.60
2022-11-13T22:33:35.892Z,86.80
2022-11-13T22:36:12.181Z,86.70
2022-11-13T22:38:39.549Z,87.00
2022-11-13T22:41:23.297Z,87.30
2022-11-13T22:43:53.098Z,87.00
2022-11-13T22:46:22.624Z,86.70
2022-11-13T22:48:50.989Z,86.90
2022-11-13T22:51:20.644Z,86.90
2022-11-13T22:53:58.998Z,87.20
2022-11-13T22:56:27.740Z,87.60
2022-11-13T22:58:56.359Z,87.00
2022-11-13T23:01:26.267Z,86.50
2022-11-13T23:03:54.307Z,86.20
2022-11-13T23:06:29.076Z,87.20
2022-11-13T23:08:56.188Z,88.00
2022-11-13T23:11:27.562Z,88.20
2022-11-13T23:13:59.922Z,88.90
2022-11-13T23:16:28.083Z,90.20
2022-11-13T23:18:57.453Z,90.10
2022-11-13T23:21:25.314Z,90.40
2022-11-13T23:23:52.712Z,90.50
2022-11-13T23:26:19.951Z,90.30
2022-11-13T23:28:46.750Z,90.50
2022-11-13T23:31:13.760Z,90.40
2022-11-13T23:33:40.883Z,90.20
2022-11-13T23:36:10.195Z,90.20
2022-11-13T23:38:36.921Z,90.40
2022-11-13T23:41:03.700Z,90.80
2022-11-13T23:43:54.332Z,91.00
2022-11-13T23:46:17.814Z,91.00
2022-11-13T23:48:44.579Z,91.10
2022-11-13T23:51:11.318Z,91.10
2022-11-13T23:53:37.999Z,90.90
2022-11-13T23:56:05.837Z,90.90
2022-11-13T23:58:33.194Z,90.90
